Погода Луннаяна 2 недели

Витебская область, Белоруссия

23 июля-05 августа
  • 23июля
    Сегодня
    +13°
    +26°
    Ясно и безоблачно
    ВремяПогодаТемператураВлажностьДавлениеВетер, м/сВероятность осадков
    00:00Ясно и безоблачно+17°C93 %742 мм2.2 м/с2 %
    03:00Ясно и безоблачно+16°C96 %742 мм2.0 м/с2 %
    06:00Ясно и безоблачно+15°C97 %743 мм2.5 м/с2 %
    09:00Практически безоблачно+20°C78 %743 мм3.6 м/с2 %
    12:00Практически безоблачно+24°C60 %743 мм4.0 м/с6 %
    15:00Ясно и безоблачно+25°C53 %743 мм3.2 м/с13 %
    18:00Ясно и безоблачно+25°C50 %743 мм3.2 м/с4 %
    21:00Небольшая облачность+22°C66 %743 мм2.2 м/с2 %
  • 24июля
    Среда
    +13°
    +25°
    Практически безоблачно
    ВремяПогодаТемператураВлажностьДавлениеВетер, м/сВероятность осадков
    00:00Ясно и безоблачно+18°C66 %743 мм2.5 м/с2 %
    03:00Ясно и безоблачно+15°C80 %743 мм1.9 м/с2 %
    06:00Ясно и безоблачно+14°C85 %742 мм1.8 м/с2 %
    09:00Ясно и безоблачно+20°C71 %743 мм1.5 м/с2 %
    12:00Небольшая облачность+24°C54 %743 мм3.5 м/с7 %
    15:00Практически безоблачно+25°C49 %742 мм2.7 м/с10 %
    18:00Практически безоблачно+25°C46 %741 мм3.1 м/с4 %
    21:00Ясно и безоблачно+21°C61 %741 мм1.8 м/с2 %
  • 25июля
    Четверг
    +16°
    +26°
    Пасмурно, сплошная облачность
    ВремяПогодаТемператураВлажностьДавлениеВетер, м/сВероятность осадков
    00:00Ясно и безоблачно+16°C74 %741 мм2.3 м/с2 %
    03:00Ясно и безоблачно+14°C81 %741 мм1.8 м/с2 %
    06:00Ясно и безоблачно+14°C82 %741 мм1.7 м/с2 %
    09:00Ясно и безоблачно+20°C64 %741 мм2.1 м/с2 %
    12:00Облачно с прояснениями+24°C43 %741 мм3.0 м/с2 %
    15:00Пасмурно, сплошная облачность+25°C44 %741 мм2.9 м/с2 %
    18:00Ясно и безоблачно+25°C46 %741 мм2.0 м/с2 %
    21:00Ясно и безоблачно+21°C69 %741 мм1.6 м/с2 %
  • 26июля
    Пятница
    +15°
    +26°
    Облачно с прояснениями
    ВремяПогодаТемператураВлажностьДавлениеВетер, м/сВероятность осадков
    00:00Облачно с прояснениями+18°C72 %741 мм1.9 м/с2 %
    03:00Пасмурно, сплошная облачность+18°C66 %742 мм2.4 м/с2 %
    06:00Облачно с прояснениями+17°C78 %742 мм2.4 м/с2 %
    09:00Облачно с прояснениями+22°C67 %742 мм1.7 м/с2 %
    12:00Облачно с прояснениями+25°C52 %743 мм1.5 м/с11 %
    15:00Облачно с прояснениями+25°C51 %744 мм1.3 м/с27 %
    18:00Облачно с прояснениями+25°C62 %744 мм2.0 м/с40 %
    21:00Облачно с прояснениями+21°C76 %745 мм1.2 м/с22 %
  • 27июля
    Суббота
    +16°
    +27°
    Практически безоблачно
    ВремяПогодаТемператураВлажностьДавлениеВетер, м/сВероятность осадков
    00:00Ясно и безоблачно+18°C90 %745 мм2.3 м/с7 %
    03:00Ясно и безоблачно+18°C87 %746 мм0.3 м/с14 %
    06:00Ясно и безоблачно+16°C93 %746 мм0.9 м/с12 %
    09:00Ясно и безоблачно+21°C72 %747 мм0.6 м/с14 %
    12:00Ясно и безоблачно+25°C56 %748 мм0.4 м/с20 %
    15:00Практически безоблачно+27°C51 %748 мм0.7 м/с29 %
    18:00Ясно и безоблачно+26°C49 %748 мм1.3 м/с36 %
    21:00Ясно и безоблачно+25°C61 %748 мм0.7 м/с11 %
Мы используем cookies
Соглашаюсь